createdAt,value
2019-01-08T00:02:16.040Z,96188.72
2019-01-08T00:04:45.263Z,96188.91
2019-01-08T00:07:14.472Z,96191.28
2019-01-08T00:09:43.674Z,96176.11
2019-01-08T00:12:12.870Z,96167.70
2019-01-08T00:14:42.071Z,96167.27
2019-01-08T00:17:11.291Z,96163.92
2019-01-08T00:19:40.461Z,96147.22
2019-01-08T00:22:09.680Z,96147.41
2019-01-08T00:24:38.895Z,96142.78
2019-01-08T00:27:08.357Z,96133.41
2019-01-08T00:29:37.572Z,96132.56
2019-01-08T00:32:06.752Z,96136.31
2019-01-08T00:34:35.973Z,96135.91
2019-01-08T00:37:05.188Z,96134.78
2019-01-08T00:39:34.701Z,96118.76
2019-01-08T00:42:03.971Z,96126.30
2019-01-08T00:44:33.169Z,96118.14
2019-01-08T00:47:02.685Z,96115.89
2019-01-08T00:49:31.904Z,96110.80
2019-01-08T00:52:01.249Z,96109.70
2019-01-08T00:54:30.479Z,96114.48
2019-01-08T00:56:59.665Z,96108.37
2019-01-08T00:59:28.865Z,96106.62
2019-01-08T01:01:58.081Z,96100.05
2019-01-08T01:04:27.270Z,96096.38
2019-01-08T01:06:56.478Z,96085.92
2019-01-08T01:09:25.673Z,96074.96
2019-01-08T01:11:54.860Z,96087.08
2019-01-08T01:14:24.083Z,96078.49
2019-01-08T01:16:53.288Z,96079.43
2019-01-08T01:19:22.514Z,96071.09
2019-01-08T01:21:51.703Z,96072.31
2019-01-08T01:24:20.917Z,96055.85
2019-01-08T01:26:50.787Z,96065.34
2019-01-08T01:29:19.978Z,96054.62
2019-01-08T01:31:49.199Z,96050.50
2019-01-08T01:34:18.395Z,96039.79
2019-01-08T01:36:47.594Z,96044.55
2019-01-08T01:39:16.814Z,96039.88
2019-01-08T01:41:46.005Z,96039.26
2019-01-08T01:44:15.249Z,96033.36
2019-01-08T01:46:44.442Z,96025.62
2019-01-08T01:49:13.648Z,96017.09
2019-01-08T01:51:42.866Z,96007.30
2019-01-08T01:54:12.070Z,95998.28
2019-01-08T01:56:41.309Z,96000.28
2019-01-08T01:59:10.497Z,95986.55
2019-01-08T02:01:39.695Z,95984.53
2019-01-08T02:04:08.929Z,95976.80
2019-01-08T02:06:38.128Z,95970.06
2019-01-08T02:09:08.272Z,95963.80
2019-01-08T02:11:37.474Z,95962.62
2019-01-08T02:14:06.681Z,95952.78
2019-01-08T02:16:35.909Z,95951.78
2019-01-08T02:19:05.156Z,95956.16
2019-01-08T02:21:34.382Z,95946.72
2019-01-08T02:24:03.565Z,95933.14
2019-01-08T02:26:32.750Z,95927.96
2019-01-08T02:29:01.956Z,95921.06
2019-01-08T02:31:31.192Z,95921.13
2019-01-08T02:34:00.376Z,95905.77
2019-01-08T02:36:29.600Z,95908.77
2019-01-08T02:38:58.808Z,95901.22
2019-01-08T02:41:28.488Z,95893.71
2019-01-08T02:43:57.835Z,95885.97
2019-01-08T02:46:27.029Z,95883.34
2019-01-08T02:48:56.290Z,95875.94
2019-01-08T02:51:25.472Z,95870.28
2019-01-08T02:53:54.971Z,95855.06
2019-01-08T02:56:24.162Z,95850.49
2019-01-08T02:58:53.356Z,95853.39
2019-01-08T03:01:22.582Z,95848.81
2019-01-08T03:03:52.412Z,95840.80
2019-01-08T03:06:21.640Z,95829.77
2019-01-08T03:08:51.134Z,95829.77
2019-01-08T03:11:20.310Z,95821.45
2019-01-08T03:13:49.529Z,95815.83
2019-01-08T03:16:19.060Z,95812.66
2019-01-08T03:18:48.679Z,95795.66
2019-01-08T03:21:18.382Z,95797.44
2019-01-08T03:23:47.885Z,95771.34
2019-01-08T03:26:17.090Z,95770.11
2019-01-08T03:28:46.276Z,95757.91
2019-01-08T03:31:15.505Z,95736.39
2019-01-08T03:33:44.754Z,95745.27
2019-01-08T03:36:13.942Z,95748.05
2019-01-08T03:38:43.233Z,95727.18
2019-01-08T03:41:12.424Z,95723.34
2019-01-08T03:43:41.639Z,95717.59
2019-01-08T03:46:10.839Z,95710.44
2019-01-08T03:48:47.138Z,95701.98
2019-01-08T03:51:16.323Z,95693.10
2019-01-08T03:53:45.517Z,95682.72
2019-01-08T03:56:14.724Z,95686.77
2019-01-08T03:58:43.911Z,95668.92
2019-01-08T04:01:13.149Z,95665.97
2019-01-08T04:03:42.414Z,95668.73
2019-01-08T04:06:11.882Z,95647.34
2019-01-08T04:08:41.095Z,95645.62
2019-01-08T04:11:10.281Z,95634.59
2019-01-08T04:13:39.508Z,95634.59
2019-01-08T04:16:08.688Z,95616.23
2019-01-08T04:18:37.879Z,95618.47
2019-01-08T04:21:07.126Z,95610.63
2019-01-08T04:23:36.604Z,95610.87
2019-01-08T04:26:05.823Z,95625.71
2019-01-08T04:28:35.016Z,95613.98
2019-01-08T04:31:04.195Z,95605.18
2019-01-08T04:33:33.415Z,95610.11
2019-01-08T04:36:02.604Z,95597.75
2019-01-08T04:38:31.790Z,95588.47
2019-01-08T04:41:01.000Z,95578.05
2019-01-08T04:43:30.201Z,95563.85
2019-01-08T04:45:59.403Z,95559.19
2019-01-08T04:48:28.591Z,95550.37
2019-01-08T04:50:57.778Z,95564.63
2019-01-08T04:53:26.982Z,95540.53
2019-01-08T04:55:56.181Z,95544.62
2019-01-08T04:58:25.402Z,95537.50
2019-01-08T05:00:54.627Z,95532.21
2019-01-08T05:03:23.818Z,95527.94
2019-01-08T05:05:53.644Z,95527.61
2019-01-08T05:08:23.956Z,95525.38
2019-01-08T05:10:53.174Z,95517.44
2019-01-08T05:13:22.365Z,95508.09
2019-01-08T05:15:51.553Z,95492.10
2019-01-08T05:18:20.777Z,95500.09
2019-01-08T05:20:49.994Z,95491.31
2019-01-08T05:23:19.219Z,95489.91
2019-01-08T05:25:48.508Z,95485.88
2019-01-08T05:28:18.002Z,95482.63
2019-01-08T05:30:47.226Z,95472.64
2019-01-08T05:33:16.430Z,95473.08
2019-01-08T05:35:45.634Z,95461.28
2019-01-08T05:38:15.202Z,95457.73
2019-01-08T05:40:44.399Z,95459.53
2019-01-08T05:43:13.625Z,95458.77
2019-01-08T05:45:42.830Z,95456.41
2019-01-08T05:48:12.062Z,95448.45
2019-01-08T05:53:49.787Z,95442.13
2019-01-08T05:56:18.997Z,95444.29
2019-01-08T05:58:48.209Z,95441.65
2019-01-08T06:01:17.476Z,95435.29
2019-01-08T06:03:46.665Z,95431.89
2019-01-08T06:06:15.883Z,95408.49
2019-01-08T06:08:45.147Z,95432.36
2019-01-08T06:11:14.360Z,95431.86
2019-01-08T06:13:43.555Z,95440.56
2019-01-08T06:16:12.810Z,95421.92
2019-01-08T06:18:42.053Z,95406.80
2019-01-08T06:21:11.252Z,95419.23
2019-01-08T06:23:40.474Z,95425.29
2019-01-08T06:26:09.682Z,95416.64
2019-01-08T06:28:38.944Z,95402.79
2019-01-08T06:31:08.490Z,95410.70
2019-01-08T06:33:37.703Z,95413.18
2019-01-08T06:36:06.892Z,95409.81
2019-01-08T06:38:36.084Z,95418.56
2019-01-08T06:41:05.300Z,95408.16
2019-01-08T06:43:34.494Z,95398.00
2019-01-08T06:46:03.730Z,95403.12
2019-01-08T06:48:33.194Z,95403.34
2019-01-08T06:51:02.397Z,95387.84
2019-01-08T06:53:31.904Z,95397.78
2019-01-08T06:56:01.102Z,95401.84
2019-01-08T06:58:30.315Z,95398.89
2019-01-08T07:00:59.503Z,95394.69
2019-01-08T07:03:28.690Z,95403.21
2019-01-08T07:05:57.903Z,95415.84
2019-01-08T07:08:27.087Z,95399.80
2019-01-08T07:10:56.312Z,95409.86
2019-01-08T07:13:25.824Z,95390.67
2019-01-08T07:15:55.004Z,95392.79
2019-01-08T07:18:24.207Z,95395.75
2019-01-08T07:20:53.670Z,95391.91
2019-01-08T07:23:22.872Z,95401.75
2019-01-08T07:25:52.049Z,95394.48
2019-01-08T07:28:21.228Z,95388.30
2019-01-08T07:30:50.426Z,95399.07
2019-01-08T07:33:19.597Z,95391.08
2019-01-08T07:35:48.810Z,95405.37
2019-01-08T07:38:18.207Z,95396.50
2019-01-08T07:40:47.379Z,95396.50
2019-01-08T07:43:16.571Z,95380.61
2019-01-08T07:45:45.741Z,95395.66
2019-01-08T07:48:14.943Z,95383.53
2019-01-08T07:50:44.126Z,95383.08
2019-01-08T07:53:13.648Z,95376.23
2019-01-08T07:55:42.866Z,95390.94
2019-01-08T07:58:12.349Z,95401.94
2019-01-08T08:00:49.785Z,95377.83
2019-01-08T08:03:12.479Z,95379.77
2019-01-08T08:05:41.714Z,95362.91
2019-01-08T08:08:11.310Z,95348.59
2019-01-08T08:10:40.527Z,95394.09
2019-01-08T08:13:09.736Z,95367.44
2019-01-08T08:15:38.939Z,95358.97
2019-01-08T08:18:08.115Z,95355.00
2019-01-08T08:20:37.328Z,95348.23
2019-01-08T08:23:06.516Z,95352.88
2019-01-08T08:25:35.731Z,95346.86
2019-01-08T08:28:04.923Z,95360.88
2019-01-08T08:30:34.127Z,95347.31
2019-01-08T08:33:03.311Z,95343.02
2019-01-08T08:35:32.881Z,95336.84
2019-01-08T08:38:02.076Z,95357.64
2019-01-08T08:40:31.302Z,95350.09
2019-01-08T08:43:00.483Z,95344.66
2019-01-08T08:45:29.770Z,95359.90
2019-01-08T08:47:58.960Z,95358.92
2019-01-08T08:50:28.176Z,95346.47
2019-01-08T08:52:57.363Z,95368.78
2019-01-08T08:55:26.981Z,95347.84
2019-01-08T08:57:56.166Z,95355.39
2019-01-08T09:00:25.375Z,95348.23
2019-01-08T09:02:54.666Z,95361.34
2019-01-08T09:05:24.197Z,95357.42
2019-01-08T09:07:53.774Z,95343.02
2019-01-08T09:10:22.979Z,95349.42
2019-01-08T09:12:52.189Z,95345.27
2019-01-08T09:15:21.417Z,95354.08
2019-01-08T09:17:50.913Z,95352.78
2019-01-08T09:20:20.137Z,95351.48
2019-01-08T09:22:49.396Z,95339.16
2019-01-08T09:25:18.586Z,95350.22
2019-01-08T09:27:47.778Z,95357.61
2019-01-08T09:30:16.970Z,95338.92
2019-01-08T09:32:46.493Z,95355.98
2019-01-08T09:35:15.680Z,95356.97
2019-01-08T09:37:44.895Z,95346.34
2019-01-08T09:40:14.079Z,95347.98
2019-01-08T09:42:43.276Z,95352.96
2019-01-08T09:45:12.464Z,95339.77
2019-01-08T09:47:41.669Z,95331.72
2019-01-08T09:50:10.859Z,95335.78
2019-01-08T09:52:40.082Z,95336.09
2019-01-08T09:55:09.658Z,95332.86
2019-01-08T09:57:38.853Z,95333.30
2019-01-08T10:00:08.974Z,95319.20
2019-01-08T10:02:38.481Z,95330.13
2019-01-08T10:05:07.699Z,95342.48
2019-01-08T10:07:36.909Z,95319.94
2019-01-08T10:10:06.799Z,95323.02
2019-01-08T10:12:35.997Z,95341.56
2019-01-08T10:15:05.331Z,95330.92
2019-01-08T10:17:34.976Z,95334.84
2019-01-08T10:20:04.316Z,95312.83
2019-01-08T10:22:33.535Z,95325.95
2019-01-08T10:25:02.736Z,95332.05
2019-01-08T10:27:31.979Z,95322.00
2019-01-08T10:30:01.171Z,95308.64
2019-01-08T10:32:30.358Z,95304.50
2019-01-08T10:34:59.685Z,95289.89
2019-01-08T10:37:28.886Z,95299.63
2019-01-08T10:39:58.475Z,95298.46
2019-01-08T10:42:27.721Z,95289.62
2019-01-08T10:44:56.928Z,95292.54
2019-01-08T10:47:26.145Z,95301.08
2019-01-08T10:49:55.356Z,95284.30
2019-01-08T10:52:24.543Z,95284.30
2019-01-08T10:54:53.782Z,95283.30
2019-01-08T10:57:23.002Z,95275.06
2019-01-08T10:59:52.213Z,95280.39
2019-01-08T11:02:21.444Z,95272.44
2019-01-08T11:04:50.685Z,95262.78
2019-01-08T11:07:19.902Z,95266.09
2019-01-08T11:09:49.087Z,95243.22
2019-01-08T11:12:18.311Z,95269.02
2019-01-08T11:14:47.505Z,95271.08
2019-01-08T11:17:16.762Z,95255.52
2019-01-08T11:19:45.943Z,95256.34
2019-01-08T11:22:15.131Z,95247.61
2019-01-08T11:24:44.661Z,95260.75
2019-01-08T11:27:13.839Z,95242.59
2019-01-08T11:29:43.056Z,95249.75
2019-01-08T11:32:12.254Z,95248.83
2019-01-08T11:34:41.482Z,95243.94
2019-01-08T11:37:10.774Z,95247.11
2019-01-08T11:39:40.272Z,95245.05
2019-01-08T11:42:09.506Z,95238.30
2019-01-08T11:44:38.683Z,95231.23
2019-01-08T11:47:07.896Z,95231.47
2019-01-08T11:49:37.076Z,95220.78
2019-01-08T11:52:06.656Z,95216.84
2019-01-08T11:54:40.953Z,95219.11
2019-01-08T11:57:07.153Z,95209.33
2019-01-08T11:59:36.396Z,95207.31
2019-01-08T12:04:52.812Z,95191.77
2019-01-08T12:07:22.026Z,95172.61
2019-01-08T12:09:51.217Z,95166.53
2019-01-08T12:12:20.446Z,95163.90
2019-01-08T12:14:50.143Z,95176.53
2019-01-08T12:17:19.345Z,95179.65
2019-01-08T12:19:48.545Z,95165.24
2019-01-08T12:22:17.732Z,95166.46
2019-01-08T12:24:46.946Z,95161.81
2019-01-08T12:27:16.124Z,95173.20
2019-01-08T12:29:45.705Z,95165.33
2019-01-08T12:32:15.013Z,95153.77
2019-01-08T12:34:44.239Z,95162.33
2019-01-08T12:37:13.404Z,95151.52
2019-01-08T12:39:42.911Z,95148.11
2019-01-08T12:42:12.126Z,95132.80
2019-01-08T12:44:42.195Z,95128.58
2019-01-08T12:47:11.413Z,95130.31
2019-01-08T12:49:40.605Z,95137.16
2019-01-08T12:52:10.714Z,95109.44
2019-01-08T12:54:40.011Z,95118.41
2019-01-08T12:57:09.916Z,95121.17
2019-01-08T12:59:40.883Z,95110.23
2019-01-08T13:02:14.916Z,95119.53
2019-01-08T13:05:21.903Z,95113.57
2019-01-08T13:07:51.136Z,95110.17
2019-01-08T13:10:20.356Z,95112.36
2019-01-08T13:12:49.554Z,95099.91
2019-01-08T13:15:18.764Z,95119.08
2019-01-08T13:17:48.019Z,95112.00
2019-01-08T13:20:17.271Z,95092.36
2019-01-08T13:22:46.855Z,95093.92
2019-01-08T13:25:16.425Z,95093.92
2019-01-08T13:27:46.025Z,95086.95
2019-01-08T13:30:15.608Z,95078.22
2019-01-08T13:33:03.879Z,95076.77
2019-01-08T13:35:33.184Z,95081.62
2019-01-08T13:38:02.370Z,95089.52
2019-01-08T13:40:31.943Z,95102.01
2019-01-08T13:43:01.264Z,95084.75
2019-01-08T13:45:30.460Z,95096.23
2019-01-08T13:47:59.673Z,95102.92
2019-01-08T13:53:17.071Z,95100.63
2019-01-08T13:55:46.306Z,95098.79
2019-01-08T13:58:16.303Z,95089.42
2019-01-08T14:00:45.568Z,95095.84
2019-01-08T14:03:15.112Z,95084.84
2019-01-08T14:05:44.811Z,95071.27
2019-01-08T14:08:14.028Z,95061.17
2019-01-08T14:10:43.212Z,95063.08
2019-01-08T14:13:12.846Z,95057.14
2019-01-08T14:15:42.034Z,95064.73
2019-01-08T14:18:11.248Z,95087.39
2019-01-08T14:20:40.521Z,95090.96
2019-01-08T14:23:09.728Z,95087.66
2019-01-08T14:25:38.910Z,95088.38
2019-01-08T14:28:08.517Z,95088.29
2019-01-08T14:30:37.729Z,95093.49
2019-01-08T14:33:07.522Z,95091.21
2019-01-08T14:35:36.733Z,95094.04
2019-01-08T14:38:05.927Z,95101.19
2019-01-08T14:40:35.136Z,95094.80
2019-01-08T14:43:04.317Z,95093.33
2019-01-08T14:45:33.542Z,95117.08
2019-01-08T14:48:02.735Z,95075.72
2019-01-08T14:50:32.149Z,95079.28
2019-01-08T14:53:01.337Z,95105.52
2019-01-08T14:55:30.581Z,95100.81
2019-01-08T14:57:59.793Z,95095.32
2019-01-08T15:00:28.996Z,95090.73
2019-01-08T15:02:58.204Z,95099.82
2019-01-08T15:05:27.516Z,95093.69
2019-01-08T15:07:57.006Z,95088.66
2019-01-08T15:10:26.182Z,95085.98
2019-01-08T15:12:55.370Z,95080.02
2019-01-08T15:15:24.569Z,95074.98
2019-01-08T15:17:53.741Z,95069.40
2019-01-08T15:20:23.210Z,95081.12
2019-01-08T15:22:52.389Z,95119.78
2019-01-08T15:25:21.610Z,95072.76
2019-01-08T15:27:51.506Z,95059.66
2019-01-08T15:30:20.713Z,95061.21
2019-01-08T15:32:58.012Z,95058.81
2019-01-08T15:35:20.859Z,95056.05
2019-01-08T15:37:50.413Z,95060.35
2019-01-08T15:40:19.916Z,95054.84
2019-01-08T15:42:49.123Z,95038.45
2019-01-08T15:45:18.610Z,95039.54
2019-01-08T15:47:48.217Z,95024.69
2019-01-08T15:50:17.457Z,95053.02
2019-01-08T15:52:46.631Z,95034.31
2019-01-08T15:55:15.994Z,95036.42
2019-01-08T15:57:45.321Z,95053.02
2019-01-08T16:00:15.619Z,95040.19
2019-01-08T16:02:45.776Z,95057.22
2019-01-08T16:05:14.969Z,95052.34
2019-01-08T16:07:44.176Z,95042.38
2019-01-08T16:10:13.692Z,95021.47
2019-01-08T16:12:42.868Z,95035.96
2019-01-08T16:15:12.066Z,95027.14
2019-01-08T16:17:41.242Z,95027.98
2019-01-08T16:20:11.110Z,95038.05
2019-01-08T16:22:40.281Z,95032.47
2019-01-08T16:25:09.480Z,95031.82
2019-01-08T16:27:38.658Z,95039.33
2019-01-08T16:30:08.321Z,95033.39
2019-01-08T16:32:38.819Z,95038.05
2019-01-08T16:35:08.028Z,95021.18
2019-01-08T16:37:37.572Z,95044.17
2019-01-08T16:40:08.188Z,95014.66
2019-01-08T16:42:37.388Z,95035.91
2019-01-08T16:45:07.210Z,95022.44
2019-01-08T16:53:20.651Z,95021.70
2019-01-08T16:55:50.134Z,95013.17
2019-01-08T16:58:26.150Z,95020.87
2019-01-08T17:00:55.445Z,94971.95
2019-01-08T17:03:26.736Z,95006.93
2019-01-08T17:05:55.594Z,95003.73
2019-01-08T17:08:24.807Z,94993.92
2019-01-08T17:10:53.989Z,95001.90
2019-01-08T17:13:23.223Z,94982.92
2019-01-08T17:15:52.395Z,94983.56
2019-01-08T17:18:21.661Z,94979.69
2019-01-08T17:20:50.834Z,94980.17
2019-01-08T17:23:20.039Z,94974.23
2019-01-08T17:25:49.367Z,94980.17
2019-01-08T17:28:18.549Z,94962.84
2019-01-08T17:30:47.738Z,94975.75
2019-01-08T17:33:16.939Z,94973.35
2019-01-08T17:35:46.351Z,94996.68
2019-01-08T17:38:15.556Z,94968.29
2019-01-08T17:40:44.772Z,94976.43
2019-01-08T17:43:13.961Z,94950.31
2019-01-08T17:45:43.159Z,94984.72
2019-01-08T17:48:12.330Z,94975.56
2019-01-08T17:50:41.519Z,94976.36
2019-01-08T17:55:50.065Z,94967.30
2019-01-08T17:58:47.849Z,94957.59
2019-01-08T18:01:38.037Z,94956.50
2019-01-08T18:04:07.237Z,94967.58
2019-01-08T18:06:36.415Z,94966.30
2019-01-08T18:09:45.030Z,94962.55
2019-01-08T18:12:14.247Z,94960.89
2019-01-08T18:17:51.976Z,94936.19
2019-01-08T18:20:21.532Z,94969.13
2019-01-08T18:22:50.714Z,94959.87
2019-01-08T18:25:19.981Z,94935.45
2019-01-08T18:27:49.167Z,94922.34
2019-01-08T18:30:18.363Z,94940.81
2019-01-08T18:32:47.565Z,94964.06
2019-01-08T18:35:16.792Z,94959.58
2019-01-08T18:37:45.963Z,94967.12
2019-01-08T18:40:34.170Z,94939.49
2019-01-08T18:43:03.347Z,94972.09
2019-01-08T18:45:32.537Z,94951.22
2019-01-08T18:48:01.741Z,94960.81
2019-01-08T18:50:30.914Z,94949.88
2019-01-08T18:53:00.108Z,94986.72
2019-01-08T18:55:29.657Z,94949.92
2019-01-08T18:57:58.876Z,94965.05
2019-01-08T19:00:28.491Z,94983.62
2019-01-08T19:02:57.659Z,94970.42
2019-01-08T19:05:26.879Z,94971.26
2019-01-08T19:07:56.716Z,94964.41
2019-01-08T19:10:26.631Z,94971.94
2019-01-08T19:12:55.773Z,94957.76
2019-01-08T19:15:25.473Z,94968.30
2019-01-08T19:17:54.655Z,94975.14
2019-01-08T19:20:24.083Z,94975.63
2019-01-08T19:22:53.422Z,94973.45
2019-01-08T19:25:22.598Z,94968.64
2019-01-08T19:27:51.955Z,94968.34
2019-01-08T19:30:21.132Z,94966.26
2019-01-08T19:32:50.514Z,94959.02
2019-01-08T19:35:19.785Z,94950.50
2019-01-08T19:37:48.954Z,94959.86
2019-01-08T19:40:18.149Z,94967.98
2019-01-08T19:45:55.992Z,94956.11
2019-01-08T19:48:25.172Z,94962.61
2019-01-08T19:50:54.781Z,94959.41
2019-01-08T19:53:23.957Z,94969.56
2019-01-08T19:55:53.156Z,94975.23
2019-01-08T19:58:41.419Z,94962.01
2019-01-08T20:01:10.670Z,94958.01
2019-01-08T20:03:39.975Z,94963.73
2019-01-08T20:06:09.150Z,94973.89
2019-01-08T20:08:38.354Z,94967.48
2019-01-08T20:11:07.531Z,94947.28
2019-01-08T20:13:36.733Z,94928.06
2019-01-08T20:16:06.286Z,94963.39
2019-01-08T20:18:35.779Z,94967.13
2019-01-08T20:21:04.977Z,94969.56
2019-01-08T20:23:34.163Z,94964.73
2019-01-08T20:26:03.400Z,94956.56
2019-01-08T20:28:32.586Z,94971.20
2019-01-08T20:31:01.792Z,94970.84
2019-01-08T20:33:30.970Z,94959.95
2019-01-08T20:36:00.260Z,94958.67
2019-01-08T20:38:29.430Z,94951.38
2019-01-08T20:40:58.939Z,94961.97
2019-01-08T20:43:28.140Z,94966.45
2019-01-08T20:45:57.319Z,94952.72
2019-01-08T20:48:26.830Z,94954.29
2019-01-08T20:50:56.005Z,94947.27
2019-01-08T20:53:25.225Z,94947.88
2019-01-08T20:55:54.398Z,94937.63
2019-01-08T20:58:28.582Z,94939.75
2019-01-08T21:00:54.523Z,94945.52
2019-01-08T21:03:23.831Z,94943.94
2019-01-08T21:05:53.325Z,94928.98
2019-01-08T21:08:22.501Z,94936.09
2019-01-08T21:10:51.694Z,94925.30
2019-01-08T21:13:21.159Z,94934.06
2019-01-08T21:15:50.364Z,94939.92
2019-01-08T21:18:19.530Z,94948.75
2019-01-08T21:20:48.701Z,94928.40
2019-01-08T21:23:17.894Z,94933.77
2019-01-08T21:25:47.428Z,94946.82
2019-01-08T21:28:16.625Z,94926.94
2019-01-08T21:30:45.794Z,94927.43
2019-01-08T21:33:14.970Z,94945.11
2019-01-08T21:35:44.561Z,94938.95
2019-01-08T21:38:14.167Z,94932.98
2019-01-08T21:40:43.392Z,94932.89
2019-01-08T21:43:31.919Z,94927.83
2019-01-08T21:46:22.173Z,94927.98
2019-01-08T21:49:12.152Z,94924.63
2019-01-08T21:51:41.501Z,94931.61
2019-01-08T21:54:10.807Z,94935.10
2019-01-08T21:56:40.079Z,94918.81
2019-01-08T21:59:09.272Z,94916.38
2019-01-08T22:01:38.452Z,94926.53
2019-01-08T22:04:07.986Z,94929.00
2019-01-08T22:06:39.196Z,94925.98
2019-01-08T22:09:08.404Z,94902.07
2019-01-08T22:11:37.607Z,94921.66
2019-01-08T22:14:06.778Z,94900.53
2019-01-08T22:16:35.956Z,94901.19
2019-01-08T22:19:05.174Z,94910.59
2019-01-08T22:21:34.366Z,94917.92
2019-01-08T22:24:03.922Z,94918.28
2019-01-08T22:26:33.139Z,94905.03
2019-01-08T22:29:03.470Z,94900.50
2019-01-08T22:31:32.713Z,94911.63
2019-01-08T22:34:01.954Z,94905.17
2019-01-08T22:36:31.129Z,94882.04
2019-01-08T22:39:00.311Z,94893.66
2019-01-08T22:41:29.524Z,94875.55
2019-01-08T22:43:58.709Z,94874.31
2019-01-08T22:46:27.888Z,94878.63
2019-01-08T22:48:57.115Z,94867.31
2019-01-08T22:51:26.288Z,94860.45
2019-01-08T22:53:55.830Z,94867.69
2019-01-08T22:56:25.337Z,94862.83
2019-01-08T22:58:54.872Z,94874.80
2019-01-08T23:01:31.858Z,94876.03
2019-01-08T23:04:40.405Z,94863.43
2019-01-08T23:07:09.623Z,94851.17
2019-01-08T23:09:38.808Z,94842.56
2019-01-08T23:12:07.996Z,94842.02
2019-01-08T23:14:37.223Z,94858.75
2019-01-08T23:17:06.409Z,94823.91
2019-01-08T23:19:35.906Z,94841.92
2019-01-08T23:22:05.129Z,94827.75
2019-01-08T23:24:34.304Z,94827.05
2019-01-08T23:27:03.496Z,94824.77
2019-01-08T23:29:32.709Z,94838.70
2019-01-08T23:32:01.900Z,94805.70
2019-01-08T23:34:31.488Z,94831.49
2019-01-08T23:37:01.036Z,94832.48
2019-01-08T23:39:30.224Z,94832.94
2019-01-08T23:41:59.772Z,94830.18
2019-01-08T23:44:29.120Z,94827.33
2019-01-08T23:46:58.298Z,94824.86
2019-01-08T23:49:27.475Z,94826.37
2019-01-08T23:52:39.362Z,94808.66
2019-01-08T23:55:08.706Z,94803.06
2019-01-08T23:58:17.328Z,94812.56
